バンダルスリブガワン の空港の天気 - METARとTAF

ブルネイ国際空港 ( WBSB / BWN ) - ブルネイ バンダルスリブガワン
飛行場実況気象(Metar)
観測時間06/18 07:30 BNT (06/17 23:30 UTC)
風向・風速南南西 2m/s
視程10km以上
天気現象
少しの雲 雲底高度 460m
全天の8割程度の雲 雲底高度 4270m
気温27℃
湿度84%
気圧1011hPa
METARWBSB 172330Z 20003KT 9999 FEW015 BKN140 27/24 Q1011 NOSIG
過去の天気等 Google飛行場航空写真 Wunderground天気予報

過去48時間のMETAR

飛行場予報(TAF)
発表時間: 6/18 07:00 BNT (6/17 23:00 UTC)
予報対象時間: 18日8時 BNT ~ 19日14時 BNT
風向・風速南西 2m/s
視程10km以上
少しの雲 雲底高度 430m
少しの積乱雲 雲底高度 460m
18日11時 BNT ~ 18日14時 BNT に一時的に
視程8000m
天気現象弱いしゅう雨
全天の4割程度の雲 雲底高度 460m
18日12時 BNT ~ 18日14時 BNT に徐々に
風向・風速西北西 5m/s
少しの雲 雲底高度 490m
少しの積乱雲 雲底高度 520m
TAF WBSB 172300Z 1800/1906 22004KT 9999 FEW014 FEW015CB
TEMPO 1803/1806 8000 -SHRA SCT015
BECMG 1804/1806 30010KT FEW016 FEW017CB